sensor_id;sensor_type;location;lat;lon;timestamp;pressure;altitude;pressure_sealevel;temperature;humidity
63447;BME280;49577;49.872;6.190;2023-07-13T00:01:03;99531.82;;;14.14;67.21
63447;BME280;49577;49.872;6.190;2023-07-13T00:03:28;99534.92;;;14.15;67.27
63447;BME280;49577;49.872;6.190;2023-07-13T00:06:00;99537.39;;;14.18;67.12
63447;BME280;49577;49.872;6.190;2023-07-13T00:08:25;99537.02;;;14.22;67.10
63447;BME280;49577;49.872;6.190;2023-07-13T00:10:51;99538.63;;;14.26;66.74
63447;BME280;49577;49.872;6.190;2023-07-13T00:13:19;99536.13;;;14.29;66.47
63447;BME280;49577;49.872;6.190;2023-07-13T00:15:44;99532.13;;;14.33;66.49
63447;BME280;49577;49.872;6.190;2023-07-13T00:18:09;99531.46;;;14.35;66.59
63447;BME280;49577;49.872;6.190;2023-07-13T00:20:35;99532.83;;;14.33;66.64
63447;BME280;49577;49.872;6.190;2023-07-13T00:23:00;99533.02;;;14.30;66.92
63447;BME280;49577;49.872;6.190;2023-07-13T00:25:25;99529.27;;;14.29;66.97
63447;BME280;49577;49.872;6.190;2023-07-13T00:27:52;99529.91;;;14.30;66.99
63447;BME280;49577;49.872;6.190;2023-07-13T00:30:18;99525.15;;;14.32;66.94
63447;BME280;49577;49.872;6.190;2023-07-13T00:32:43;99524.08;;;14.34;66.72
63447;BME280;49577;49.872;6.190;2023-07-13T00:35:09;99520.14;;;14.35;66.80
63447;BME280;49577;49.872;6.190;2023-07-13T00:37:34;99520.23;;;14.32;66.86
63447;BME280;49577;49.872;6.190;2023-07-13T00:40:01;99521.70;;;14.29;67.03
63447;BME280;49577;49.872;6.190;2023-07-13T00:42:26;99519.06;;;14.23;67.27
63447;BME280;49577;49.872;6.190;2023-07-13T00:45:01;99515.38;;;14.18;67.42
63447;BME280;49577;49.872;6.190;2023-07-13T00:47:26;99519.30;;;14.13;67.44
63447;BME280;49577;49.872;6.190;2023-07-13T00:49:51;99512.08;;;14.09;67.54
63447;BME280;49577;49.872;6.190;2023-07-13T00:52:16;99508.10;;;14.06;67.55
63447;BME280;49577;49.872;6.190;2023-07-13T00:54:43;99511.71;;;14.02;67.64
63447;BME280;49577;49.872;6.190;2023-07-13T00:57:11;99516.82;;;13.98;67.89
63447;BME280;49577;49.872;6.190;2023-07-13T00:59:37;99526.38;;;13.95;68.12
63447;BME280;49577;49.872;6.190;2023-07-13T01:02:05;99523.57;;;13.92;68.08
63447;BME280;49577;49.872;6.190;2023-07-13T01:04:30;99515.74;;;13.84;67.96
63447;BME280;49577;49.872;6.190;2023-07-13T01:06:56;99514.48;;;13.76;68.36
63447;BME280;49577;49.872;6.190;2023-07-13T01:09:22;99517.01;;;13.71;68.60
63447;BME280;49577;49.872;6.190;2023-07-13T01:11:47;99521.64;;;13.69;68.88
63447;BME280;49577;49.872;6.190;2023-07-13T01:14:13;99526.48;;;13.70;69.02
63447;BME280;49577;49.872;6.190;2023-07-13T01:16:39;99526.71;;;13.72;68.92
63447;BME280;49577;49.872;6.190;2023-07-13T01:19:07;99525.64;;;13.74;68.91
63447;BME280;49577;49.872;6.190;2023-07-13T01:21:38;99525.83;;;13.70;68.83
63447;BME280;49577;49.872;6.190;2023-07-13T01:24:08;99525.55;;;13.64;69.19
63447;BME280;49577;49.872;6.190;2023-07-13T01:26:33;99524.95;;;13.61;69.26
63447;BME280;49577;49.872;6.190;2023-07-13T01:28:58;99527.50;;;13.55;69.18
63447;BME280;49577;49.872;6.190;2023-07-13T01:31:24;99529.05;;;13.51;69.62
63447;BME280;49577;49.872;6.190;2023-07-13T01:33:49;99533.98;;;13.50;69.61
63447;BME280;49577;49.872;6.190;2023-07-13T01:36:14;99539.03;;;13.51;69.72
63447;BME280;49577;49.872;6.190;2023-07-13T01:38:39;99543.74;;;13.51;69.85
63447;BME280;49577;49.872;6.190;2023-07-13T01:41:04;99542.71;;;13.51;69.73
63447;BME280;49577;49.872;6.190;2023-07-13T01:43:30;99539.92;;;13.53;69.87
63447;BME280;49577;49.872;6.190;2023-07-13T01:45:55;99542.06;;;13.59;69.71
63447;BME280;49577;49.872;6.190;2023-07-13T01:48:20;99540.66;;;13.66;69.38
63447;BME280;49577;49.872;6.190;2023-07-13T01:50:46;99545.30;;;13.70;69.25
63447;BME280;49577;49.872;6.190;2023-07-13T01:53:12;99545.16;;;13.72;69.12
63447;BME280;49577;49.872;6.190;2023-07-13T01:55:37;99545.14;;;13.74;69.21
63447;BME280;49577;49.872;6.190;2023-07-13T01:58:03;99545.38;;;13.73;69.15
63447;BME280;49577;49.872;6.190;2023-07-13T02:00:28;99548.67;;;13.72;69.37
63447;BME280;49577;49.872;6.190;2023-07-13T02:02:53;99552.40;;;13.73;69.51
63447;BME280;49577;49.872;6.190;2023-07-13T02:05:19;99549.23;;;13.76;69.30
63447;BME280;49577;49.872;6.190;2023-07-13T02:07:44;99550.30;;;13.78;69.20
63447;BME280;49577;49.872;6.190;2023-07-13T02:10:09;99549.98;;;13.82;69.16
63447;BME280;49577;49.872;6.190;2023-07-13T02:12:35;99559.23;;;13.85;68.83
63447;BME280;49577;49.872;6.190;2023-07-13T02:15:01;99560.58;;;13.88;68.95
63447;BME280;49577;49.872;6.190;2023-07-13T02:17:26;99557.98;;;13.89;68.75
63447;BME280;49577;49.872;6.190;2023-07-13T02:19:52;99560.15;;;13.89;68.92
63447;BME280;49577;49.872;6.190;2023-07-13T02:22:17;99553.73;;;13.90;68.78
63447;BME280;49577;49.872;6.190;2023-07-13T02:24:43;99558.66;;;13.85;68.84
63447;BME280;49577;49.872;6.190;2023-07-13T02:27:08;99560.81;;;13.83;68.73
63447;BME280;49577;49.872;6.190;2023-07-13T02:29:33;99562.48;;;13.77;68.68
63447;BME280;49577;49.872;6.190;2023-07-13T02:31:58;99560.61;;;13.72;68.93
63447;BME280;49577;49.872;6.190;2023-07-13T02:34:24;99558.62;;;13.68;69.02
63447;BME280;49577;49.872;6.190;2023-07-13T02:36:49;99564.98;;;13.63;69.07
63447;BME280;49577;49.872;6.190;2023-07-13T02:39:14;99562.61;;;13.59;69.07
63447;BME280;49577;49.872;6.190;2023-07-13T02:41:40;99567.38;;;13.54;69.27
63447;BME280;49577;49.872;6.190;2023-07-13T02:44:05;99567.29;;;13.49;69.30
63447;BME280;49577;49.872;6.190;2023-07-13T02:46:31;99574.53;;;13.41;69.52
63447;BME280;49577;49.872;6.190;2023-07-13T02:48:56;99571.80;;;13.35;69.71
63447;BME280;49577;49.872;6.190;2023-07-13T02:51:21;99571.86;;;13.29;69.98
63447;BME280;49577;49.872;6.190;2023-07-13T02:53:47;99563.98;;;13.27;70.05
63447;BME280;49577;49.872;6.190;2023-07-13T02:56:12;99560.89;;;13.26;70.32
63447;BME280;49577;49.872;6.190;2023-07-13T02:58:37;99560.75;;;13.25;70.45
63447;BME280;49577;49.872;6.190;2023-07-13T03:01:05;99559.72;;;13.25;70.28
63447;BME280;49577;49.872;6.190;2023-07-13T03:03:31;99563.06;;;13.20;70.32
63447;BME280;49577;49.872;6.190;2023-07-13T03:05:59;99565.75;;;13.15;70.51
63447;BME280;49577;49.872;6.190;2023-07-13T03:08:25;99567.84;;;13.03;70.67
63447;BME280;49577;49.872;6.190;2023-07-13T03:10:58;99565.14;;;12.92;71.03
63447;BME280;49577;49.872;6.190;2023-07-13T03:13:23;99565.41;;;12.81;71.07
63447;BME280;49577;49.872;6.190;2023-07-13T03:15:48;99564.54;;;12.72;71.28
63447;BME280;49577;49.872;6.190;2023-07-13T03:18:14;99572.77;;;12.67;71.76
63447;BME280;49577;49.872;6.190;2023-07-13T03:20:39;99575.31;;;12.63;71.70
63447;BME280;49577;49.872;6.190;2023-07-13T03:23:04;99578.30;;;12.55;71.88
63447;BME280;49577;49.872;6.190;2023-07-13T03:25:29;99578.54;;;12.45;71.96
63447;BME280;49577;49.872;6.190;2023-07-13T03:27:54;99579.74;;;12.32;72.37
63447;BME280;49577;49.872;6.190;2023-07-13T03:30:20;99583.83;;;12.24;72.76
63447;BME280;49577;49.872;6.190;2023-07-13T03:32:45;99585.10;;;12.21;73.18
63447;BME280;49577;49.872;6.190;2023-07-13T03:35:10;99590.80;;;12.20;73.29
63447;BME280;49577;49.872;6.190;2023-07-13T03:37:35;99595.44;;;12.18;73.21
63447;BME280;49577;49.872;6.190;2023-07-13T03:40:07;99597.80;;;12.15;73.24
63447;BME280;49577;49.872;6.190;2023-07-13T03:42:34;99602.89;;;12.09;73.42
63447;BME280;49577;49.872;6.190;2023-07-13T03:44:59;99602.98;;;12.03;73.68
63447;BME280;49577;49.872;6.190;2023-07-13T03:47:24;99605.73;;;11.99;73.75
63447;BME280;49577;49.872;6.190;2023-07-13T03:49:50;99608.49;;;11.97;73.90
63447;BME280;49577;49.872;6.190;2023-07-13T03:52:15;99616.85;;;11.95;73.93
63447;BME280;49577;49.872;6.190;2023-07-13T03:54:40;99615.63;;;11.89;74.03
63447;BME280;49577;49.872;6.190;2023-07-13T03:57:05;99616.02;;;11.84;74.20
63447;BME280;49577;49.872;6.190;2023-07-13T03:59:31;99613.45;;;11.83;74.33
63447;BME280;49577;49.872;6.190;2023-07-13T04:01:56;99612.02;;;11.80;74.33
63447;BME280;49577;49.872;6.190;2023-07-13T04:04:21;99617.12;;;11.77;74.34
63447;BME280;49577;49.872;6.190;2023-07-13T04:06:47;99619.63;;;11.76;74.71
63447;BME280;49577;49.872;6.190;2023-07-13T04:09:12;99616.98;;;11.77;74.56
63447;BME280;49577;49.872;6.190;2023-07-13T04:11:37;99615.84;;;11.78;74.73
63447;BME280;49577;49.872;6.190;2023-07-13T04:14:02;99618.98;;;11.81;74.69
63447;BME280;49577;49.872;6.190;2023-07-13T04:16:28;99620.85;;;11.82;74.75
63447;BME280;49577;49.872;6.190;2023-07-13T04:18:54;99624.65;;;11.83;74.74
63447;BME280;49577;49.872;6.190;2023-07-13T04:21:24;99625.95;;;11.87;74.91
63447;BME280;49577;49.872;6.190;2023-07-13T04:23:49;99619.71;;;11.91;74.76
63447;BME280;49577;49.872;6.190;2023-07-13T04:26:14;99624.27;;;11.97;74.69
63447;BME280;49577;49.872;6.190;2023-07-13T04:28:40;99627.80;;;12.06;74.45
63447;BME280;49577;49.872;6.190;2023-07-13T04:31:05;99629.33;;;12.17;74.48
63447;BME280;49577;49.872;6.190;2023-07-13T04:33:30;99631.52;;;12.33;74.12
63447;BME280;49577;49.872;6.190;2023-07-13T04:35:55;99631.41;;;12.43;73.50
63447;BME280;49577;49.872;6.190;2023-07-13T04:38:22;99627.73;;;12.50;73.39
63447;BME280;49577;49.872;6.190;2023-07-13T04:40:49;99624.77;;;12.57;72.96
63447;BME280;49577;49.872;6.190;2023-07-13T04:43:15;99627.66;;;12.66;72.74
63447;BME280;49577;49.872;6.190;2023-07-13T04:45:40;99627.95;;;12.76;72.48
63447;BME280;49577;49.872;6.190;2023-07-13T04:48:06;99628.17;;;12.88;72.09
63447;BME280;49577;49.872;6.190;2023-07-13T04:50:31;99629.73;;;13.00;71.87
63447;BME280;49577;49.872;6.190;2023-07-13T04:52:56;99636.21;;;13.13;71.55
63447;BME280;49577;49.872;6.190;2023-07-13T04:55:21;99637.99;;;13.20;71.19
63447;BME280;49577;49.872;6.190;2023-07-13T04:57:47;99644.34;;;13.27;70.92
63447;BME280;49577;49.872;6.190;2023-07-13T05:00:12;99649.59;;;13.32;70.60
63447;BME280;49577;49.872;6.190;2023-07-13T05:02:38;99653.30;;;13.33;70.48
63447;BME280;49577;49.872;6.190;2023-07-13T05:05:04;99655.94;;;13.36;70.48
63447;BME280;49577;49.872;6.190;2023-07-13T05:07:30;99652.91;;;13.46;70.36
63447;BME280;49577;49.872;6.190;2023-07-13T05:09:55;99651.02;;;13.92;69.65
63447;BME280;49577;49.872;6.190;2023-07-13T05:12:21;99651.88;;;14.66;68.60
63447;BME280;49577;49.872;6.190;2023-07-13T05:14:46;99650.61;;;15.41;66.99
63447;BME280;49577;49.872;6.190;2023-07-13T05:17:11;99648.77;;;16.15;65.22
63447;BME280;49577;49.872;6.190;2023-07-13T05:19:36;99646.35;;;16.84;63.44
63447;BME280;49577;49.872;6.190;2023-07-13T05:22:02;99646.64;;;17.56;61.43
63447;BME280;49577;49.872;6.190;2023-07-13T05:24:28;99647.04;;;18.18;59.83
63447;BME280;49577;49.872;6.190;2023-07-13T05:26:54;99646.80;;;18.73;58.26
63447;BME280;49577;49.872;6.190;2023-07-13T05:29:19;99643.77;;;19.25;56.78
63447;BME280;49577;49.872;6.190;2023-07-13T05:31:45;99643.27;;;19.62;55.75
63447;BME280;49577;49.872;6.190;2023-07-13T05:34:10;99640.27;;;19.85;54.96
63447;BME280;49577;49.872;6.190;2023-07-13T05:36:35;99640.02;;;20.29;53.70
63447;BME280;49577;49.872;6.190;2023-07-13T05:39:00;99639.45;;;20.26;53.12
63447;BME280;49577;49.872;6.190;2023-07-13T05:41:27;99642.69;;;20.02;53.18
63447;BME280;49577;49.872;6.190;2023-07-13T05:43:52;99644.60;;;20.19;52.89
63447;BME280;49577;49.872;6.190;2023-07-13T05:46:17;99643.83;;;20.40;52.46
63447;BME280;49577;49.872;6.190;2023-07-13T05:48:42;99643.46;;;20.46;52.05
63447;BME280;49577;49.872;6.190;2023-07-13T05:51:08;99644.84;;;20.31;51.95
63447;BME280;49577;49.872;6.190;2023-07-13T05:53:34;99645.98;;;20.30;52.12
63447;BME280;49577;49.872;6.190;2023-07-13T05:55:59;99645.11;;;20.69;51.94
63447;BME280;49577;49.872;6.190;2023-07-13T05:58:24;99640.77;;;21.26;50.97
63447;BME280;49577;49.872;6.190;2023-07-13T06:00:57;99636.05;;;21.91;49.88
63447;BME280;49577;49.872;6.190;2023-07-13T06:03:23;99635.02;;;22.40;48.45
63447;BME280;49577;49.872;6.190;2023-07-13T06:05:48;99635.21;;;22.73;47.95
63447;BME280;49577;49.872;6.190;2023-07-13T06:08:13;99638.99;;;22.95;47.42
63447;BME280;49577;49.872;6.190;2023-07-13T06:10:39;99636.38;;;23.27;46.73
63447;BME280;49577;49.872;6.190;2023-07-13T06:13:04;99642.63;;;23.56;46.22
63447;BME280;49577;49.872;6.190;2023-07-13T06:15:29;99646.65;;;23.81;45.75
63447;BME280;49577;49.872;6.190;2023-07-13T06:17:54;99649.83;;;24.08;44.97
63447;BME280;49577;49.872;6.190;2023-07-13T06:20:20;99650.61;;;24.53;44.27
63447;BME280;49577;49.872;6.190;2023-07-13T06:22:45;99645.16;;;24.94;43.02
63447;BME280;49577;49.872;6.190;2023-07-13T06:25:10;99644.52;;;25.21;41.75
63447;BME280;49577;49.872;6.190;2023-07-13T06:27:35;99642.70;;;25.32;41.25
63447;BME280;49577;49.872;6.190;2023-07-13T06:30:01;99643.20;;;25.61;40.84
63447;BME280;49577;49.872;6.190;2023-07-13T06:32:26;99647.89;;;25.85;40.12
63447;BME280;49577;49.872;6.190;2023-07-13T06:34:51;99646.56;;;26.07;39.91
63447;BME280;49577;49.872;6.190;2023-07-13T06:37:17;99647.47;;;26.25;39.01
63447;BME280;49577;49.872;6.190;2023-07-13T06:39:42;99653.17;;;25.90;39.19
63447;BME280;49577;49.872;6.190;2023-07-13T06:42:07;99654.39;;;25.88;39.11
63447;BME280;49577;49.872;6.190;2023-07-13T06:44:32;99648.76;;;26.25;38.57
63447;BME280;49577;49.872;6.190;2023-07-13T06:46:58;99650.33;;;26.68;37.72
63447;BME280;49577;49.872;6.190;2023-07-13T06:49:23;99648.48;;;26.85;37.81
63447;BME280;49577;49.872;6.190;2023-07-13T06:51:48;99650.17;;;27.38;37.14
63447;BME280;49577;49.872;6.190;2023-07-13T06:54:13;99648.58;;;27.91;36.26
63447;BME280;49577;49.872;6.190;2023-07-13T06:56:39;99652.77;;;28.33;35.13
63447;BME280;49577;49.872;6.190;2023-07-13T06:59:04;99653.37;;;28.80;34.77
63447;BME280;49577;49.872;6.190;2023-07-13T07:01:29;99655.39;;;29.07;34.42
63447;BME280;49577;49.872;6.190;2023-07-13T07:03:54;99654.28;;;28.93;34.17
63447;BME280;49577;49.872;6.190;2023-07-13T07:06:20;99654.14;;;28.95;34.04
63447;BME280;49577;49.872;6.190;2023-07-13T07:08:48;99649.16;;;29.30;33.55
63447;BME280;49577;49.872;6.190;2023-07-13T07:11:16;99647.47;;;29.80;32.76
63447;BME280;49577;49.872;6.190;2023-07-13T07:13:41;99644.20;;;30.09;32.24
63447;BME280;49577;49.872;6.190;2023-07-13T07:16:07;99647.79;;;29.88;31.87
63447;BME280;49577;49.872;6.190;2023-07-13T07:18:33;99645.95;;;29.40;32.41
63447;BME280;49577;49.872;6.190;2023-07-13T07:20:58;99651.97;;;29.03;32.96
63447;BME280;49577;49.872;6.190;2023-07-13T07:23:23;99655.64;;;28.71;33.48
63447;BME280;49577;49.872;6.190;2023-07-13T07:25:49;99658.06;;;29.00;33.13
63447;BME280;49577;49.872;6.190;2023-07-13T07:28:15;99653.71;;;29.41;32.02
63447;BME280;49577;49.872;6.190;2023-07-13T07:30:43;99651.13;;;29.95;31.37
63447;BME280;49577;49.872;6.190;2023-07-13T07:33:08;99650.10;;;30.13;30.69
63447;BME280;49577;49.872;6.190;2023-07-13T07:35:34;99649.67;;;29.96;30.53
63447;BME280;49577;49.872;6.190;2023-07-13T07:37:59;99656.33;;;29.95;29.96
63447;BME280;49577;49.872;6.190;2023-07-13T07:40:24;99654.64;;;29.92;29.89
63447;BME280;49577;49.872;6.190;2023-07-13T07:42:50;99656.34;;;29.93;29.43
63447;BME280;49577;49.872;6.190;2023-07-13T07:45:15;99655.79;;;29.85;29.39
63447;BME280;49577;49.872;6.190;2023-07-13T07:47:40;99662.02;;;29.74;29.17
63447;BME280;49577;49.872;6.190;2023-07-13T07:50:06;99664.75;;;29.19;30.07
63447;BME280;49577;49.872;6.190;2023-07-13T07:52:31;99666.82;;;28.87;30.47
63447;BME280;49577;49.872;6.190;2023-07-13T07:54:56;99665.85;;;28.66;30.78
63447;BME280;49577;49.872;6.190;2023-07-13T07:57:22;99663.16;;;28.54;30.82
63447;BME280;49577;49.872;6.190;2023-07-13T07:59:47;99659.49;;;28.43;30.78
63447;BME280;49577;49.872;6.190;2023-07-13T08:02:13;99657.43;;;28.54;30.85
63447;BME280;49577;49.872;6.190;2023-07-13T08:04:38;99659.48;;;28.72;30.61
63447;BME280;49577;49.872;6.190;2023-07-13T08:07:03;99661.11;;;29.25;30.20
63447;BME280;49577;49.872;6.190;2023-07-13T08:09:29;99660.11;;;29.98;29.47
63447;BME280;49577;49.872;6.190;2023-07-13T08:11:54;99658.79;;;30.60;28.70
63447;BME280;49577;49.872;6.190;2023-07-13T08:14:20;99658.23;;;31.07;28.04
63447;BME280;49577;49.872;6.190;2023-07-13T08:16:45;99656.64;;;31.48;27.34
63447;BME280;49577;49.872;6.190;2023-07-13T08:19:10;99651.36;;;31.81;26.58
63447;BME280;49577;49.872;6.190;2023-07-13T08:21:36;99651.95;;;32.05;26.33
63447;BME280;49577;49.872;6.190;2023-07-13T08:24:02;99659.31;;;32.16;26.03
63447;BME280;49577;49.872;6.190;2023-07-13T08:26:27;99658.91;;;32.27;25.83
63447;BME280;49577;49.872;6.190;2023-07-13T08:28:52;99656.73;;;32.40;25.74
63447;BME280;49577;49.872;6.190;2023-07-13T08:31:17;99657.06;;;32.83;25.62
63447;BME280;49577;49.872;6.190;2023-07-13T08:33:42;99654.60;;;33.04;25.11
63447;BME280;49577;49.872;6.190;2023-07-13T08:36:08;99653.77;;;33.11;24.55
63447;BME280;49577;49.872;6.190;2023-07-13T08:38:33;99660.82;;;33.13;24.39
63447;BME280;49577;49.872;6.190;2023-07-13T08:40:58;99656.48;;;33.17;24.09
63447;BME280;49577;49.872;6.190;2023-07-13T08:43:32;99661.26;;;33.11;23.87
63447;BME280;49577;49.872;6.190;2023-07-13T08:46:08;99659.23;;;32.84;23.79
63447;BME280;49577;49.872;6.190;2023-07-13T08:48:38;99658.67;;;32.88;24.06
63447;BME280;49577;49.872;6.190;2023-07-13T08:51:28;99662.16;;;32.84;24.10
63447;BME280;49577;49.872;6.190;2023-07-13T08:53:51;99659.94;;;32.96;23.89
63447;BME280;49577;49.872;6.190;2023-07-13T08:56:20;99657.65;;;33.24;23.93
63447;BME280;49577;49.872;6.190;2023-07-13T08:58:47;99656.60;;;33.45;23.34
63447;BME280;49577;49.872;6.190;2023-07-13T09:03:45;99651.11;;;33.73;23.02
63447;BME280;49577;49.872;6.190;2023-07-13T09:06:12;99650.80;;;34.01;22.75
63447;BME280;49577;49.872;6.190;2023-07-13T09:12:08;99650.73;;;34.11;22.39
63447;BME280;49577;49.872;6.190;2023-07-13T09:16:56;99649.73;;;33.69;22.25
63447;BME280;49577;49.872;6.190;2023-07-13T09:19:26;99652.03;;;33.83;22.19
63447;BME280;49577;49.872;6.190;2023-07-13T09:21:53;99650.77;;;33.85;21.78
63447;BME280;49577;49.872;6.190;2023-07-13T09:27:15;99648.81;;;33.60;21.96
63447;BME280;49577;49.872;6.190;2023-07-13T09:29:44;99646.55;;;33.65;21.97
63447;BME280;49577;49.872;6.190;2023-07-13T09:32:10;99640.92;;;33.69;22.12
63447;BME280;49577;49.872;6.190;2023-07-13T09:34:39;99641.69;;;33.86;22.22
63447;BME280;49577;49.872;6.190;2023-07-13T09:37:04;99635.20;;;34.08;21.96
63447;BME280;49577;49.872;6.190;2023-07-13T09:39:35;99634.77;;;34.26;21.54
63447;BME280;49577;49.872;6.190;2023-07-13T09:44:31;99637.86;;;34.29;21.36
63447;BME280;49577;49.872;6.190;2023-07-13T09:46:57;99637.16;;;34.19;21.36
63447;BME280;49577;49.872;6.190;2023-07-13T09:49:31;99639.35;;;33.96;21.64
63447;BME280;49577;49.872;6.190;2023-07-13T09:51:58;99638.98;;;33.97;21.46
63447;BME280;49577;49.872;6.190;2023-07-13T09:54:25;99636.67;;;33.98;21.42
63447;BME280;49577;49.872;6.190;2023-07-13T09:57:00;99633.74;;;33.49;21.58
63447;BME280;49577;49.872;6.190;2023-07-13T09:59:30;99634.85;;;33.54;21.95
63447;BME280;49577;49.872;6.190;2023-07-13T10:01:56;99631.20;;;33.65;21.88
63447;BME280;49577;49.872;6.190;2023-07-13T10:04:26;99634.92;;;34.12;21.71
63447;BME280;49577;49.872;6.190;2023-07-13T10:06:52;99631.19;;;34.47;21.11
63447;BME280;49577;49.872;6.190;2023-07-13T10:09:29;99631.46;;;34.51;21.00
63447;BME280;49577;49.872;6.190;2023-07-13T10:11:54;99637.98;;;34.05;21.19
63447;BME280;49577;49.872;6.190;2023-07-13T10:14:20;99636.59;;;33.97;21.18
63447;BME280;49577;49.872;6.190;2023-07-13T10:16:48;99635.04;;;34.05;21.21
63447;BME280;49577;49.872;6.190;2023-07-13T10:19:21;99639.98;;;33.98;20.86
63447;BME280;49577;49.872;6.190;2023-07-13T10:21:50;99641.52;;;33.27;21.41
63447;BME280;49577;49.872;6.190;2023-07-13T10:24:19;99648.15;;;32.65;22.21
63447;BME280;49577;49.872;6.190;2023-07-13T10:26:47;99641.93;;;32.04;22.73
63447;BME280;49577;49.872;6.190;2023-07-13T10:29:14;99642.74;;;31.31;23.37
63447;BME280;49577;49.872;6.190;2023-07-13T10:31:40;99643.19;;;30.92;24.27
63447;BME280;49577;49.872;6.190;2023-07-13T10:34:09;99637.58;;;30.45;24.73
63447;BME280;49577;49.872;6.190;2023-07-13T10:36:38;99640.45;;;30.00;25.03
63447;BME280;49577;49.872;6.190;2023-07-13T10:39:05;99639.08;;;30.66;24.54
63447;BME280;49577;49.872;6.190;2023-07-13T10:41:32;99636.95;;;31.45;24.14
63447;BME280;49577;49.872;6.190;2023-07-13T10:43:59;99641.20;;;31.90;23.69
63447;BME280;49577;49.872;6.190;2023-07-13T10:46:25;99650.15;;;31.70;23.63
63447;BME280;49577;49.872;6.190;2023-07-13T10:48:57;99650.77;;;31.08;23.67
63447;BME280;49577;49.872;6.190;2023-07-13T10:51:24;99653.94;;;30.35;24.18
63447;BME280;49577;49.872;6.190;2023-07-13T10:56:34;99656.15;;;28.89;26.07
63447;BME280;49577;49.872;6.190;2023-07-13T11:02:08;99658.22;;;28.40;26.89
63447;BME280;49577;49.872;6.190;2023-07-13T11:04:24;99655.54;;;28.42;27.13
63447;BME280;49577;49.872;6.190;2023-07-13T11:06:52;99655.06;;;28.60;26.98
63447;BME280;49577;49.872;6.190;2023-07-13T11:09:37;99659.52;;;28.48;27.10
63447;BME280;49577;49.872;6.190;2023-07-13T11:19:50;99675.47;;;27.42;28.41
63447;BME280;49577;49.872;6.190;2023-07-13T11:22:16;99670.41;;;27.06;28.63
63447;BME280;49577;49.872;6.190;2023-07-13T11:24:50;99672.05;;;26.75;29.23
63447;BME280;49577;49.872;6.190;2023-07-13T11:27:21;99677.12;;;26.45;29.35
63447;BME280;49577;49.872;6.190;2023-07-13T11:29:48;99670.56;;;26.13;29.64
63447;BME280;49577;49.872;6.190;2023-07-13T11:32:23;99668.52;;;25.95;29.73
63447;BME280;49577;49.872;6.190;2023-07-13T11:34:51;99671.42;;;25.86;30.10
63447;BME280;49577;49.872;6.190;2023-07-13T11:37:18;99667.94;;;25.84;30.26
63447;BME280;49577;49.872;6.190;2023-07-13T11:39:44;99667.30;;;25.79;30.53
63447;BME280;49577;49.872;6.190;2023-07-13T11:42:12;99669.52;;;25.67;30.58
63447;BME280;49577;49.872;6.190;2023-07-13T11:44:41;99673.23;;;25.50;30.94
63447;BME280;49577;49.872;6.190;2023-07-13T11:47:09;99671.75;;;25.26;30.88
63447;BME280;49577;49.872;6.190;2023-07-13T11:49:44;99681.94;;;25.00;31.62
63447;BME280;49577;49.872;6.190;2023-07-13T11:52:18;99683.38;;;24.80;31.88
63447;BME280;49577;49.872;6.190;2023-07-13T11:54:47;99683.52;;;24.72;32.10
63447;BME280;49577;49.872;6.190;2023-07-13T11:59:48;99676.40;;;24.92;32.25
63447;BME280;49577;49.872;6.190;2023-07-13T12:02:16;99676.27;;;24.99;32.00
63447;BME280;49577;49.872;6.190;2023-07-13T12:04:43;99674.25;;;25.03;31.86
63447;BME280;49577;49.872;6.190;2023-07-13T12:07:17;99680.33;;;25.09;32.17
63447;BME280;49577;49.872;6.190;2023-07-13T12:09:42;99682.67;;;25.05;32.13
63447;BME280;49577;49.872;6.190;2023-07-13T12:12:14;99682.48;;;24.98;31.72
63447;BME280;49577;49.872;6.190;2023-07-13T12:14:41;99681.53;;;24.91;31.65
63447;BME280;49577;49.872;6.190;2023-07-13T12:17:15;99674.04;;;24.88;31.85
63447;BME280;49577;49.872;6.190;2023-07-13T12:19:41;99673.26;;;24.99;32.18
63447;BME280;49577;49.872;6.190;2023-07-13T12:22:08;99668.38;;;25.24;31.64
63447;BME280;49577;49.872;6.190;2023-07-13T12:24:36;99665.79;;;25.44;31.23
63447;BME280;49577;49.872;6.190;2023-07-13T12:27:03;99663.88;;;25.71;30.56
63447;BME280;49577;49.872;6.190;2023-07-13T12:29:29;99665.33;;;25.89;30.47
63447;BME280;49577;49.872;6.190;2023-07-13T12:31:54;99670.35;;;26.07;30.52
63447;BME280;49577;49.872;6.190;2023-07-13T12:34:21;99666.54;;;26.27;29.98
63447;BME280;49577;49.872;6.190;2023-07-13T12:41:41;99663.35;;;25.89;30.07
63447;BME280;49577;49.872;6.190;2023-07-13T12:44:10;99668.88;;;25.82;30.46
63447;BME280;49577;49.872;6.190;2023-07-13T12:46:36;99671.19;;;25.84;30.82
63447;BME280;49577;49.872;6.190;2023-07-13T12:49:05;99676.49;;;25.86;31.03
63447;BME280;49577;49.872;6.190;2023-07-13T12:51:32;99677.85;;;26.06;30.79
63447;BME280;49577;49.872;6.190;2023-07-13T12:53:59;99677.44;;;26.27;30.78
63447;BME280;49577;49.872;6.190;2023-07-13T12:56:30;99673.06;;;26.56;30.55
63447;BME280;49577;49.872;6.190;2023-07-13T12:58:59;99674.65;;;26.65;29.74
63447;BME280;49577;49.872;6.190;2023-07-13T13:01:29;99677.14;;;26.54;29.70
63447;BME280;49577;49.872;6.190;2023-07-13T13:03:56;99674.39;;;26.29;30.30
63447;BME280;49577;49.872;6.190;2023-07-13T13:06:26;99683.64;;;26.00;31.05
63447;BME280;49577;49.872;6.190;2023-07-13T13:08:56;99684.92;;;25.81;31.47
63447;BME280;49577;49.872;6.190;2023-07-13T13:11:23;99683.68;;;25.67;31.29
63447;BME280;49577;49.872;6.190;2023-07-13T13:13:49;99682.52;;;25.60;31.44
63447;BME280;49577;49.872;6.190;2023-07-13T13:21:47;99674.82;;;26.31;31.25
63447;BME280;49577;49.872;6.190;2023-07-13T13:24:14;99665.20;;;26.48;31.13
63447;BME280;49577;49.872;6.190;2023-07-13T13:26:40;99668.41;;;26.67;30.48
63447;BME280;49577;49.872;6.190;2023-07-13T13:29:10;99668.73;;;26.92;30.09
63447;BME280;49577;49.872;6.190;2023-07-13T13:31:38;99668.28;;;27.19;30.00
63447;BME280;49577;49.872;6.190;2023-07-13T13:34:04;99665.45;;;27.44;30.07
63447;BME280;49577;49.872;6.190;2023-07-13T13:36:32;99660.02;;;27.76;29.57